sensor_id;sensor_type;location;lat;lon;timestamp;P1;durP1;ratioP1;P2;durP2;ratioP2
66870;SDS011;53780;44.998;9.926;2022-12-20T00:02:43;75.73;;;30.83;;
66870;SDS011;53780;44.998;9.926;2022-12-20T00:05:47;80.20;;;32.22;;
66870;SDS011;53780;44.998;9.926;2022-12-20T00:08:55;78.53;;;32.90;;
66870;SDS011;53780;44.998;9.926;2022-12-20T00:12:00;74.13;;;31.75;;
66870;SDS011;53780;44.998;9.926;2022-12-20T00:15:04;76.78;;;31.55;;
66870;SDS011;53780;44.998;9.926;2022-12-20T00:18:09;84.53;;;32.30;;
66870;SDS011;53780;44.998;9.926;2022-12-20T00:21:13;76.15;;;32.17;;
66870;SDS011;53780;44.998;9.926;2022-12-20T00:24:17;80.05;;;32.35;;
66870;SDS011;53780;44.998;9.926;2022-12-20T00:27:21;78.55;;;32.95;;
66870;SDS011;53780;44.998;9.926;2022-12-20T00:30:25;73.55;;;31.70;;
66870;SDS011;53780;44.998;9.926;2022-12-20T00:33:29;80.77;;;31.80;;
66870;SDS011;53780;44.998;9.926;2022-12-20T00:36:34;75.28;;;29.92;;
66870;SDS011;53780;44.998;9.926;2022-12-20T00:39:38;80.82;;;32.53;;
66870;SDS011;53780;44.998;9.926;2022-12-20T00:42:42;75.82;;;31.90;;
66870;SDS011;53780;44.998;9.926;2022-12-20T00:45:47;82.68;;;32.83;;
66870;SDS011;53780;44.998;9.926;2022-12-20T00:48:53;77.57;;;31.40;;
66870;SDS011;53780;44.998;9.926;2022-12-20T00:51:58;81.90;;;31.92;;
66870;SDS011;53780;44.998;9.926;2022-12-20T00:55:01;77.47;;;32.50;;
66870;SDS011;53780;44.998;9.926;2022-12-20T00:58:05;80.40;;;30.88;;
66870;SDS011;53780;44.998;9.926;2022-12-20T01:01:28;76.60;;;31.63;;
66870;SDS011;53780;44.998;9.926;2022-12-20T01:04:35;76.80;;;30.63;;
66870;SDS011;53780;44.998;9.926;2022-12-20T01:07:39;75.97;;;31.77;;
66870;SDS011;53780;44.998;9.926;2022-12-20T01:10:43;82.65;;;33.15;;
66870;SDS011;53780;44.998;9.926;2022-12-20T01:13:48;79.95;;;32.10;;
66870;SDS011;53780;44.998;9.926;2022-12-20T01:16:53;81.93;;;32.67;;
66870;SDS011;53780;44.998;9.926;2022-12-20T01:19:57;83.37;;;32.63;;
66870;SDS011;53780;44.998;9.926;2022-12-20T01:23:01;73.43;;;30.80;;
66870;SDS011;53780;44.998;9.926;2022-12-20T01:26:06;79.25;;;32.17;;
66870;SDS011;53780;44.998;9.926;2022-12-20T01:29:13;79.63;;;31.60;;
66870;SDS011;53780;44.998;9.926;2022-12-20T01:32:19;78.47;;;32.72;;
66870;SDS011;53780;44.998;9.926;2022-12-20T01:35:23;87.07;;;33.30;;
66870;SDS011;53780;44.998;9.926;2022-12-20T01:38:27;84.63;;;32.88;;
66870;SDS011;53780;44.998;9.926;2022-12-20T01:41:32;79.57;;;32.53;;
66870;SDS011;53780;44.998;9.926;2022-12-20T01:47:43;76.93;;;31.90;;
66870;SDS011;53780;44.998;9.926;2022-12-20T01:50:47;81.93;;;33.23;;
66870;SDS011;53780;44.998;9.926;2022-12-20T01:53:54;74.50;;;31.60;;
66870;SDS011;53780;44.998;9.926;2022-12-20T01:57:03;82.00;;;31.92;;
66870;SDS011;53780;44.998;9.926;2022-12-20T02:00:11;82.30;;;33.10;;
66870;SDS011;53780;44.998;9.926;2022-12-20T02:03:19;76.13;;;31.52;;
66870;SDS011;53780;44.998;9.926;2022-12-20T02:06:23;78.93;;;33.37;;
66870;SDS011;53780;44.998;9.926;2022-12-20T02:09:28;78.15;;;31.70;;
66870;SDS011;53780;44.998;9.926;2022-12-20T02:12:44;83.70;;;33.13;;
66870;SDS011;53780;44.998;9.926;2022-12-20T02:15:54;75.72;;;31.50;;
66870;SDS011;53780;44.998;9.926;2022-12-20T02:19:14;77.85;;;32.40;;
66870;SDS011;53780;44.998;9.926;2022-12-20T02:26:28;81.63;;;32.15;;
66870;SDS011;53780;44.998;9.926;2022-12-20T02:32:35;75.43;;;30.33;;
66870;SDS011;53780;44.998;9.926;2022-12-20T02:35:43;75.07;;;31.02;;
66870;SDS011;53780;44.998;9.926;2022-12-20T02:38:49;77.80;;;31.83;;
66870;SDS011;53780;44.998;9.926;2022-12-20T02:41:56;79.78;;;32.22;;
66870;SDS011;53780;44.998;9.926;2022-12-20T02:45:07;78.70;;;31.70;;
66870;SDS011;53780;44.998;9.926;2022-12-20T02:48:18;76.32;;;32.38;;
66870;SDS011;53780;44.998;9.926;2022-12-20T02:51:23;79.25;;;32.30;;
66870;SDS011;53780;44.998;9.926;2022-12-20T02:54:30;72.23;;;31.97;;
66870;SDS011;53780;44.998;9.926;2022-12-20T02:57:49;74.18;;;30.55;;
66870;SDS011;53780;44.998;9.926;2022-12-20T03:01:10;73.03;;;31.40;;
66870;SDS011;53780;44.998;9.926;2022-12-20T03:04:17;74.65;;;31.33;;
66870;SDS011;53780;44.998;9.926;2022-12-20T03:07:23;68.68;;;31.05;;
66870;SDS011;53780;44.998;9.926;2022-12-20T03:10:27;74.30;;;30.37;;
66870;SDS011;53780;44.998;9.926;2022-12-20T03:13:32;74.22;;;31.20;;
66870;SDS011;53780;44.998;9.926;2022-12-20T03:16:43;72.82;;;30.35;;
66870;SDS011;53780;44.998;9.926;2022-12-20T03:19:47;74.00;;;31.58;;
66870;SDS011;53780;44.998;9.926;2022-12-20T03:22:50;72.97;;;31.17;;
66870;SDS011;53780;44.998;9.926;2022-12-20T03:25:54;75.10;;;30.70;;
66870;SDS011;53780;44.998;9.926;2022-12-20T03:29:08;74.43;;;31.17;;
66870;SDS011;53780;44.998;9.926;2022-12-20T03:32:12;65.70;;;30.40;;
66870;SDS011;53780;44.998;9.926;2022-12-20T03:35:20;72.03;;;29.88;;
66870;SDS011;53780;44.998;9.926;2022-12-20T03:38:24;72.43;;;30.45;;
66870;SDS011;53780;44.998;9.926;2022-12-20T03:41:28;75.50;;;30.53;;
66870;SDS011;53780;44.998;9.926;2022-12-20T03:44:31;65.18;;;29.48;;
66870;SDS011;53780;44.998;9.926;2022-12-20T03:47:36;68.95;;;30.65;;
66870;SDS011;53780;44.998;9.926;2022-12-20T03:50:40;75.10;;;31.05;;
66870;SDS011;53780;44.998;9.926;2022-12-20T03:53:46;72.13;;;30.05;;
66870;SDS011;53780;44.998;9.926;2022-12-20T03:56:51;74.67;;;30.53;;
66870;SDS011;53780;44.998;9.926;2022-12-20T03:59:55;70.30;;;29.60;;
66870;SDS011;53780;44.998;9.926;2022-12-20T04:02:59;72.97;;;30.77;;
66870;SDS011;53780;44.998;9.926;2022-12-20T04:06:04;75.00;;;31.02;;
66870;SDS011;53780;44.998;9.926;2022-12-20T04:09:08;76.07;;;31.67;;
66870;SDS011;53780;44.998;9.926;2022-12-20T04:12:20;75.00;;;30.90;;
66870;SDS011;53780;44.998;9.926;2022-12-20T04:15:24;70.20;;;29.17;;
66870;SDS011;53780;44.998;9.926;2022-12-20T04:18:28;76.75;;;32.30;;
66870;SDS011;53780;44.998;9.926;2022-12-20T04:21:33;75.50;;;31.08;;
66870;SDS011;53780;44.998;9.926;2022-12-20T04:24:41;156.60;;;55.65;;
66870;SDS011;53780;44.998;9.926;2022-12-20T04:27:53;99.23;;;38.10;;
66870;SDS011;53780;44.998;9.926;2022-12-20T04:30:56;82.18;;;31.20;;
66870;SDS011;53780;44.998;9.926;2022-12-20T04:34:03;79.18;;;31.10;;
66870;SDS011;53780;44.998;9.926;2022-12-20T04:37:09;79.60;;;31.25;;
66870;SDS011;53780;44.998;9.926;2022-12-20T04:40:21;77.03;;;30.95;;
66870;SDS011;53780;44.998;9.926;2022-12-20T04:43:30;76.50;;;30.57;;
66870;SDS011;53780;44.998;9.926;2022-12-20T04:46:39;79.07;;;30.88;;
66870;SDS011;53780;44.998;9.926;2022-12-20T04:49:47;82.32;;;31.30;;
66870;SDS011;53780;44.998;9.926;2022-12-20T04:52:51;74.25;;;31.08;;
66870;SDS011;53780;44.998;9.926;2022-12-20T04:59:31;81.73;;;31.00;;
66870;SDS011;53780;44.998;9.926;2022-12-20T05:02:35;84.65;;;30.73;;
66870;SDS011;53780;44.998;9.926;2022-12-20T05:05:44;75.50;;;31.00;;
66870;SDS011;53780;44.998;9.926;2022-12-20T05:08:48;76.28;;;30.05;;
66870;SDS011;53780;44.998;9.926;2022-12-20T05:11:52;76.18;;;30.33;;
66870;SDS011;53780;44.998;9.926;2022-12-20T05:14:56;77.73;;;30.20;;
66870;SDS011;53780;44.998;9.926;2022-12-20T05:18:01;79.38;;;31.15;;
66870;SDS011;53780;44.998;9.926;2022-12-20T05:21:15;78.20;;;31.25;;
66870;SDS011;53780;44.998;9.926;2022-12-20T05:24:37;78.45;;;29.52;;
66870;SDS011;53780;44.998;9.926;2022-12-20T05:28:06;73.75;;;29.38;;
66870;SDS011;53780;44.998;9.926;2022-12-20T05:31:12;78.93;;;30.30;;
66870;SDS011;53780;44.998;9.926;2022-12-20T05:34:16;72.63;;;29.58;;
66870;SDS011;53780;44.998;9.926;2022-12-20T05:37:25;76.53;;;29.60;;
66870;SDS011;53780;44.998;9.926;2022-12-20T05:40:30;77.50;;;30.17;;
66870;SDS011;53780;44.998;9.926;2022-12-20T05:43:35;76.28;;;30.63;;
66870;SDS011;53780;44.998;9.926;2022-12-20T05:46:40;79.27;;;29.73;;
66870;SDS011;53780;44.998;9.926;2022-12-20T05:49:48;74.78;;;29.42;;
66870;SDS011;53780;44.998;9.926;2022-12-20T05:52:52;77.95;;;30.15;;
66870;SDS011;53780;44.998;9.926;2022-12-20T05:55:56;74.10;;;30.23;;
66870;SDS011;53780;44.998;9.926;2022-12-20T05:59:06;74.03;;;29.60;;
66870;SDS011;53780;44.998;9.926;2022-12-20T06:02:09;81.90;;;30.10;;
66870;SDS011;53780;44.998;9.926;2022-12-20T06:05:15;81.80;;;29.92;;
66870;SDS011;53780;44.998;9.926;2022-12-20T06:08:19;78.10;;;29.88;;
66870;SDS011;53780;44.998;9.926;2022-12-20T06:11:23;79.07;;;30.02;;
66870;SDS011;53780;44.998;9.926;2022-12-20T06:14:33;79.75;;;30.45;;
66870;SDS011;53780;44.998;9.926;2022-12-20T06:17:38;75.63;;;29.73;;
66870;SDS011;53780;44.998;9.926;2022-12-20T06:20:48;79.65;;;29.67;;
66870;SDS011;53780;44.998;9.926;2022-12-20T06:23:59;76.47;;;29.95;;
66870;SDS011;53780;44.998;9.926;2022-12-20T06:27:04;78.78;;;30.73;;
66870;SDS011;53780;44.998;9.926;2022-12-20T06:30:10;75.18;;;29.83;;
66870;SDS011;53780;44.998;9.926;2022-12-20T06:33:28;75.07;;;29.97;;
66870;SDS011;53780;44.998;9.926;2022-12-20T06:36:32;80.32;;;30.63;;
66870;SDS011;53780;44.998;9.926;2022-12-20T06:39:37;82.13;;;31.60;;
66870;SDS011;53780;44.998;9.926;2022-12-20T06:42:42;75.40;;;30.17;;
66870;SDS011;53780;44.998;9.926;2022-12-20T06:45:47;81.65;;;30.38;;
66870;SDS011;53780;44.998;9.926;2022-12-20T06:48:51;81.27;;;31.47;;
66870;SDS011;53780;44.998;9.926;2022-12-20T06:51:56;79.72;;;31.00;;
66870;SDS011;53780;44.998;9.926;2022-12-20T06:55:08;74.38;;;30.92;;
66870;SDS011;53780;44.998;9.926;2022-12-20T06:58:17;76.90;;;31.80;;
66870;SDS011;53780;44.998;9.926;2022-12-20T07:01:24;77.05;;;33.15;;
66870;SDS011;53780;44.998;9.926;2022-12-20T07:04:28;79.13;;;32.03;;
66870;SDS011;53780;44.998;9.926;2022-12-20T07:07:32;74.55;;;30.77;;
66870;SDS011;53780;44.998;9.926;2022-12-20T07:10:36;78.45;;;31.80;;
66870;SDS011;53780;44.998;9.926;2022-12-20T07:13:40;76.35;;;32.33;;
66870;SDS011;53780;44.998;9.926;2022-12-20T07:16:43;80.13;;;32.05;;
66870;SDS011;53780;44.998;9.926;2022-12-20T07:19:47;71.80;;;31.07;;
66870;SDS011;53780;44.998;9.926;2022-12-20T07:22:51;69.18;;;30.55;;
66870;SDS011;53780;44.998;9.926;2022-12-20T07:25:55;74.60;;;31.33;;
66870;SDS011;53780;44.998;9.926;2022-12-20T07:29:00;75.20;;;31.60;;
66870;SDS011;53780;44.998;9.926;2022-12-20T07:32:04;71.22;;;30.23;;
66870;SDS011;53780;44.998;9.926;2022-12-20T07:35:09;72.27;;;30.50;;
66870;SDS011;53780;44.998;9.926;2022-12-20T07:38:13;72.35;;;30.73;;
66870;SDS011;53780;44.998;9.926;2022-12-20T07:41:17;71.45;;;30.33;;
66870;SDS011;53780;44.998;9.926;2022-12-20T07:44:21;78.55;;;31.73;;
66870;SDS011;53780;44.998;9.926;2022-12-20T07:47:27;75.90;;;32.58;;
66870;SDS011;53780;44.998;9.926;2022-12-20T07:50:32;74.27;;;31.83;;
66870;SDS011;53780;44.998;9.926;2022-12-20T07:53:38;73.43;;;30.90;;
66870;SDS011;53780;44.998;9.926;2022-12-20T07:56:47;76.65;;;32.05;;
66870;SDS011;53780;44.998;9.926;2022-12-20T07:59:56;76.20;;;32.28;;
66870;SDS011;53780;44.998;9.926;2022-12-20T08:03:04;78.80;;;32.08;;
66870;SDS011;53780;44.998;9.926;2022-12-20T08:06:14;71.07;;;32.73;;
66870;SDS011;53780;44.998;9.926;2022-12-20T08:09:19;77.35;;;32.10;;
66870;SDS011;53780;44.998;9.926;2022-12-20T08:12:25;73.95;;;32.28;;
66870;SDS011;53780;44.998;9.926;2022-12-20T08:15:32;76.80;;;31.30;;
66870;SDS011;53780;44.998;9.926;2022-12-20T08:18:38;76.63;;;32.38;;
66870;SDS011;53780;44.998;9.926;2022-12-20T08:21:41;76.20;;;31.93;;
66870;SDS011;53780;44.998;9.926;2022-12-20T08:24:45;79.30;;;32.22;;
66870;SDS011;53780;44.998;9.926;2022-12-20T08:27:49;81.13;;;32.95;;
66870;SDS011;53780;44.998;9.926;2022-12-20T08:30:58;79.05;;;32.15;;
66870;SDS011;53780;44.998;9.926;2022-12-20T08:34:07;75.90;;;32.40;;
66870;SDS011;53780;44.998;9.926;2022-12-20T08:37:11;73.70;;;31.23;;
66870;SDS011;53780;44.998;9.926;2022-12-20T08:40:15;77.43;;;32.42;;
66870;SDS011;53780;44.998;9.926;2022-12-20T08:43:19;73.45;;;31.45;;
66870;SDS011;53780;44.998;9.926;2022-12-20T08:46:23;74.30;;;30.85;;
66870;SDS011;53780;44.998;9.926;2022-12-20T08:49:26;76.65;;;32.20;;
66870;SDS011;53780;44.998;9.926;2022-12-20T08:52:30;73.90;;;31.57;;
66870;SDS011;53780;44.998;9.926;2022-12-20T08:55:35;73.85;;;30.27;;
66870;SDS011;53780;44.998;9.926;2022-12-20T08:58:39;71.68;;;30.40;;
66870;SDS011;53780;44.998;9.926;2022-12-20T09:01:43;71.53;;;30.70;;
66870;SDS011;53780;44.998;9.926;2022-12-20T09:04:47;70.28;;;30.52;;
66870;SDS011;53780;44.998;9.926;2022-12-20T09:07:51;73.20;;;30.93;;
66870;SDS011;53780;44.998;9.926;2022-12-20T09:11:02;74.20;;;30.80;;
66870;SDS011;53780;44.998;9.926;2022-12-20T09:14:07;73.80;;;30.88;;
66870;SDS011;53780;44.998;9.926;2022-12-20T09:17:12;74.65;;;31.20;;
66870;SDS011;53780;44.998;9.926;2022-12-20T09:20:16;75.28;;;31.80;;
66870;SDS011;53780;44.998;9.926;2022-12-20T09:23:20;70.60;;;30.47;;
66870;SDS011;53780;44.998;9.926;2022-12-20T09:26:24;75.43;;;30.65;;
66870;SDS011;53780;44.998;9.926;2022-12-20T09:29:28;85.63;;;32.92;;
66870;SDS011;53780;44.998;9.926;2022-12-20T09:32:32;72.97;;;31.77;;
66870;SDS011;53780;44.998;9.926;2022-12-20T09:35:42;73.95;;;31.33;;
66870;SDS011;53780;44.998;9.926;2022-12-20T09:38:47;73.03;;;30.50;;
66870;SDS011;53780;44.998;9.926;2022-12-20T09:41:51;71.93;;;31.33;;
66870;SDS011;53780;44.998;9.926;2022-12-20T09:44:58;82.25;;;32.33;;
66870;SDS011;53780;44.998;9.926;2022-12-20T09:48:53;76.63;;;32.53;;
66870;SDS011;53780;44.998;9.926;2022-12-20T09:51:42;74.10;;;31.90;;
66870;SDS011;53780;44.998;9.926;2022-12-20T10:01:40;78.30;;;32.78;;
66870;SDS011;53780;44.998;9.926;2022-12-20T10:04:47;79.35;;;32.08;;
66870;SDS011;53780;44.998;9.926;2022-12-20T10:21:54;78.70;;;32.83;;
66870;SDS011;53780;44.998;9.926;2022-12-20T10:25:15;80.85;;;32.75;;
66870;SDS011;53780;44.998;9.926;2022-12-20T10:28:25;80.83;;;33.17;;
66870;SDS011;53780;44.998;9.926;2022-12-20T10:31:31;76.97;;;32.38;;
66870;SDS011;53780;44.998;9.926;2022-12-20T10:34:35;78.18;;;32.83;;
66870;SDS011;53780;44.998;9.926;2022-12-20T10:37:39;81.90;;;33.47;;
66870;SDS011;53780;44.998;9.926;2022-12-20T10:41:00;76.32;;;32.25;;
66870;SDS011;53780;44.998;9.926;2022-12-20T10:50:49;80.28;;;32.55;;
66870;SDS011;53780;44.998;9.926;2022-12-20T10:54:24;76.72;;;32.45;;
66870;SDS011;53780;44.998;9.926;2022-12-20T10:57:31;77.35;;;32.83;;
66870;SDS011;53780;44.998;9.926;2022-12-20T11:00:35;76.27;;;32.67;;
66870;SDS011;53780;44.998;9.926;2022-12-20T11:06:55;76.53;;;32.42;;
66870;SDS011;53780;44.998;9.926;2022-12-20T11:10:00;80.63;;;33.28;;
66870;SDS011;53780;44.998;9.926;2022-12-20T11:13:21;74.40;;;31.90;;
66870;SDS011;53780;44.998;9.926;2022-12-20T11:16:32;80.63;;;32.13;;
66870;SDS011;53780;44.998;9.926;2022-12-20T11:33:01;74.87;;;31.90;;
66870;SDS011;53780;44.998;9.926;2022-12-20T11:43:03;77.68;;;32.25;;
66870;SDS011;53780;44.998;9.926;2022-12-20T11:49:45;75.33;;;32.07;;
66870;SDS011;53780;44.998;9.926;2022-12-20T11:52:56;78.85;;;32.80;;
66870;SDS011;53780;44.998;9.926;2022-12-20T11:56:13;77.38;;;31.92;;
66870;SDS011;53780;44.998;9.926;2022-12-20T11:59:41;78.53;;;32.95;;
66870;SDS011;53780;44.998;9.926;2022-12-20T12:02:58;75.20;;;33.65;;
66870;SDS011;53780;44.998;9.926;2022-12-20T12:06:23;82.87;;;33.13;;
66870;SDS011;53780;44.998;9.926;2022-12-20T12:09:33;73.30;;;32.50;;
66870;SDS011;53780;44.998;9.926;2022-12-20T12:12:44;74.43;;;31.27;;
66870;SDS011;53780;44.998;9.926;2022-12-20T12:19:25;80.07;;;33.40;;
66870;SDS011;53780;44.998;9.926;2022-12-20T12:22:32;78.87;;;33.43;;
66870;SDS011;53780;44.998;9.926;2022-12-20T12:25:40;80.35;;;34.22;;
66870;SDS011;53780;44.998;9.926;2022-12-20T12:28:49;76.13;;;32.63;;
66870;SDS011;53780;44.998;9.926;2022-12-20T12:32:06;83.10;;;33.08;;
66870;SDS011;53780;44.998;9.926;2022-12-20T12:42:20;76.05;;;31.45;;
66870;SDS011;53780;44.998;9.926;2022-12-20T12:45:48;78.72;;;32.25;;
66870;SDS011;53780;44.998;9.926;2022-12-20T12:55:51;79.73;;;32.53;;
66870;SDS011;53780;44.998;9.926;2022-12-20T13:08:24;78.05;;;32.05;;
66870;SDS011;53780;44.998;9.926;2022-12-20T13:11:53;75.07;;;31.40;;
66870;SDS011;53780;44.998;9.926;2022-12-20T13:14:58;76.60;;;32.10;;
66870;SDS011;53780;44.998;9.926;2022-12-20T13:21:16;74.32;;;32.00;;
66870;SDS011;53780;44.998;9.926;2022-12-20T13:35:12;76.05;;;32.13;;
66870;SDS011;53780;44.998;9.926;2022-12-20T13:38:34;75.45;;;31.50;;
66870;SDS011;53780;44.998;9.926;2022-12-20T13:44:44;72.73;;;31.47;;
66870;SDS011;53780;44.998;9.926;2022-12-20T13:47:53;78.68;;;30.80;;
66870;SDS011;53780;44.998;9.926;2022-12-20T13:51:00;75.45;;;31.95;;
66870;SDS011;53780;44.998;9.926;2022-12-20T13:54:14;78.47;;;32.25;;
66870;SDS011;53780;44.998;9.926;2022-12-20T13:57:29;75.88;;;31.27;;
66870;SDS011;53780;44.998;9.926;2022-12-20T14:00:35;75.83;;;31.63;;
66870;SDS011;53780;44.998;9.926;2022-12-20T14:03:41;72.85;;;32.17;;
66870;SDS011;53780;44.998;9.926;2022-12-20T14:07:07;80.43;;;33.28;;
66870;SDS011;53780;44.998;9.926;2022-12-20T14:10:33;78.57;;;32.60;;
66870;SDS011;53780;44.998;9.926;2022-12-20T14:13:38;77.32;;;32.88;;
66870;SDS011;53780;44.998;9.926;2022-12-20T14:16:42;75.60;;;31.03;;
66870;SDS011;53780;44.998;9.926;2022-12-20T14:19:46;73.55;;;30.25;;
66870;SDS011;53780;44.998;9.926;2022-12-20T14:26:14;69.70;;;30.13;;
66870;SDS011;53780;44.998;9.926;2022-12-20T14:29:23;67.22;;;29.85;;
66870;SDS011;53780;44.998;9.926;2022-12-20T14:32:32;66.20;;;28.33;;
66870;SDS011;53780;44.998;9.926;2022-12-20T14:35:36;66.00;;;27.58;;
66870;SDS011;53780;44.998;9.926;2022-12-20T14:38:48;62.33;;;26.60;;
66870;SDS011;53780;44.998;9.926;2022-12-20T14:41:59;60.55;;;25.95;;
66870;SDS011;53780;44.998;9.926;2022-12-20T14:48:14;59.47;;;25.57;;
66870;SDS011;53780;44.998;9.926;2022-12-20T14:51:19;60.05;;;26.42;;
66870;SDS011;53780;44.998;9.926;2022-12-20T14:54:26;59.72;;;27.00;;
66870;SDS011;53780;44.998;9.926;2022-12-20T15:00:53;65.40;;;28.48;;
66870;SDS011;53780;44.998;9.926;2022-12-20T15:04:17;64.57;;;28.20;;
66870;SDS011;53780;44.998;9.926;2022-12-20T15:07:40;67.05;;;28.85;;
66870;SDS011;53780;44.998;9.926;2022-12-20T15:13:54;61.70;;;27.35;;
66870;SDS011;53780;44.998;9.926;2022-12-20T15:16:59;65.05;;;28.20;;
66870;SDS011;53780;44.998;9.926;2022-12-20T15:20:03;65.67;;;28.70;;
66870;SDS011;53780;44.998;9.926;2022-12-20T15:23:10;65.65;;;28.65;;
66870;SDS011;53780;44.998;9.926;2022-12-20T15:26:20;66.18;;;29.17;;
66870;SDS011;53780;44.998;9.926;2022-12-20T15:29:26;66.75;;;31.13;;
66870;SDS011;53780;44.998;9.926;2022-12-20T15:32:30;66.70;;;28.65;;
66870;SDS011;53780;44.998;9.926;2022-12-20T15:35:34;63.90;;;27.07;;
66870;SDS011;53780;44.998;9.926;2022-12-20T15:38:38;63.60;;;27.90;;
66870;SDS011;53780;44.998;9.926;2022-12-20T15:41:43;63.92;;;27.90;;
66870;SDS011;53780;44.998;9.926;2022-12-20T15:44:49;64.85;;;27.58;;
66870;SDS011;53780;44.998;9.926;2022-12-20T15:47:53;62.15;;;27.42;;
66870;SDS011;53780;44.998;9.926;2022-12-20T15:50:58;63.63;;;27.53;;
66870;SDS011;53780;44.998;9.926;2022-12-20T15:54:03;68.07;;;28.48;;
66870;SDS011;53780;44.998;9.926;2022-12-20T15:57:10;61.55;;;27.60;;
66870;SDS011;53780;44.998;9.926;2022-12-20T16:00:16;64.95;;;27.42;;
66870;SDS011;53780;44.998;9.926;2022-12-20T16:03:21;63.45;;;27.60;;
66870;SDS011;53780;44.998;9.926;2022-12-20T16:06:26;60.47;;;27.03;;
66870;SDS011;53780;44.998;9.926;2022-12-20T16:09:30;61.20;;;28.05;;
66870;SDS011;53780;44.998;9.926;2022-12-20T16:12:34;67.10;;;28.48;;
66870;SDS011;53780;44.998;9.926;2022-12-20T16:15:39;59.00;;;26.40;;
66870;SDS011;53780;44.998;9.926;2022-12-20T16:18:42;61.65;;;27.48;;
66870;SDS011;53780;44.998;9.926;2022-12-20T16:21:48;62.03;;;27.90;;
66870;SDS011;53780;44.998;9.926;2022-12-20T16:24:53;61.65;;;26.83;;
66870;SDS011;53780;44.998;9.926;2022-12-20T16:27:58;58.53;;;25.98;;
66870;SDS011;53780;44.998;9.926;2022-12-20T16:31:08;62.30;;;27.02;;
66870;SDS011;53780;44.998;9.926;2022-12-20T16:34:16;62.17;;;27.50;;
66870;SDS011;53780;44.998;9.926;2022-12-20T16:37:21;61.03;;;26.93;;
66870;SDS011;53780;44.998;9.926;2022-12-20T16:40:27;63.67;;;27.90;;
66870;SDS011;53780;44.998;9.926;2022-12-20T16:43:32;71.28;;;29.70;;
66870;SDS011;53780;44.998;9.926;2022-12-20T16:46:36;62.65;;;27.38;;
66870;SDS011;53780;44.998;9.926;2022-12-20T16:49:39;62.70;;;27.85;;
66870;SDS011;53780;44.998;9.926;2022-12-20T16:52:44;59.10;;;27.30;;
66870;SDS011;53780;44.998;9.926;2022-12-20T16:55:49;57.30;;;26.20;;
66870;SDS011;53780;44.998;9.926;2022-12-20T16:58:52;61.40;;;27.55;;
66870;SDS011;53780;44.998;9.926;2022-12-20T17:01:57;62.83;;;26.48;;
66870;SDS011;53780;44.998;9.926;2022-12-20T17:05:01;57.78;;;26.17;;
66870;SDS011;53780;44.998;9.926;2022-12-20T17:08:04;58.90;;;26.17;;
66870;SDS011;53780;44.998;9.926;2022-12-20T17:11:17;58.83;;;26.27;;
66870;SDS011;53780;44.998;9.926;2022-12-20T17:14:22;59.95;;;26.20;;
66870;SDS011;53780;44.998;9.926;2022-12-20T17:17:26;57.22;;;26.40;;
66870;SDS011;53780;44.998;9.926;2022-12-20T17:20:30;64.32;;;27.27;;
66870;SDS011;53780;44.998;9.926;2022-12-20T17:23:34;58.90;;;26.13;;
66870;SDS011;53780;44.998;9.926;2022-12-20T17:26:40;63.60;;;26.88;;
66870;SDS011;53780;44.998;9.926;2022-12-20T17:29:44;57.97;;;26.73;;
66870;SDS011;53780;44.998;9.926;2022-12-20T17:32:47;54.08;;;24.73;;
66870;SDS011;53780;44.998;9.926;2022-12-20T17:35:52;61.65;;;26.58;;
66870;SDS011;53780;44.998;9.926;2022-12-20T17:38:56;58.77;;;25.83;;
66870;SDS011;53780;44.998;9.926;2022-12-20T17:42:01;59.20;;;26.67;;
66870;SDS011;53780;44.998;9.926;2022-12-20T17:45:05;62.90;;;27.65;;
66870;SDS011;53780;44.998;9.926;2022-12-20T17:48:09;60.33;;;26.75;;
66870;SDS011;53780;44.998;9.926;2022-12-20T17:51:14;56.58;;;26.23;;
66870;SDS011;53780;44.998;9.926;2022-12-20T17:54:22;55.00;;;25.73;;
66870;SDS011;53780;44.998;9.926;2022-12-20T17:57:28;61.72;;;26.05;;
66870;SDS011;53780;44.998;9.926;2022-12-20T18:00:31;65.93;;;27.85;;
66870;SDS011;53780;44.998;9.926;2022-12-20T18:03:35;67.07;;;31.40;;
66870;SDS011;53780;44.998;9.926;2022-12-20T18:06:40;71.25;;;31.85;;
66870;SDS011;53780;44.998;9.926;2022-12-20T18:09:46;68.50;;;29.73;;
66870;SDS011;53780;44.998;9.926;2022-12-20T18:12:51;64.60;;;28.50;;
66870;SDS011;53780;44.998;9.926;2022-12-20T18:15:55;69.32;;;32.10;;
66870;SDS011;53780;44.998;9.926;2022-12-20T18:18:59;82.50;;;37.80;;
66870;SDS011;53780;44.998;9.926;2022-12-20T18:22:03;69.43;;;32.83;;
66870;SDS011;53780;44.998;9.926;2022-12-20T18:25:07;65.87;;;29.73;;
66870;SDS011;53780;44.998;9.926;2022-12-20T18:28:11;68.00;;;29.20;;
66870;SDS011;53780;44.998;9.926;2022-12-20T18:31:17;65.60;;;29.35;;
66870;SDS011;53780;44.998;9.926;2022-12-20T18:34:22;60.80;;;27.70;;
66870;SDS011;53780;44.998;9.926;2022-12-20T18:37:26;59.42;;;26.92;;
66870;SDS011;53780;44.998;9.926;2022-12-20T18:40:29;63.30;;;28.30;;
66870;SDS011;53780;44.998;9.926;2022-12-20T18:43:33;62.58;;;27.30;;
66870;SDS011;53780;44.998;9.926;2022-12-20T18:46:38;63.63;;;28.63;;
66870;SDS011;53780;44.998;9.926;2022-12-20T18:49:42;56.65;;;26.40;;
66870;SDS011;53780;44.998;9.926;2022-12-20T18:52:47;61.22;;;27.45;;
66870;SDS011;53780;44.998;9.926;2022-12-20T18:55:51;62.47;;;26.97;;
66870;SDS011;53780;44.998;9.926;2022-12-20T18:58:55;57.28;;;26.65;;
66870;SDS011;53780;44.998;9.926;2022-12-20T19:01:59;60.70;;;27.55;;
66870;SDS011;53780;44.998;9.926;2022-12-20T19:05:04;61.40;;;26.70;;
66870;SDS011;53780;44.998;9.926;2022-12-20T19:08:08;65.18;;;28.60;;
66870;SDS011;53780;44.998;9.926;2022-12-20T19:11:13;58.17;;;26.07;;
66870;SDS011;53780;44.998;9.926;2022-12-20T19:14:18;61.72;;;26.60;;
66870;SDS011;53780;44.998;9.926;2022-12-20T19:17:22;65.22;;;28.15;;
66870;SDS011;53780;44.998;9.926;2022-12-20T19:20:25;67.70;;;29.83;;
66870;SDS011;53780;44.998;9.926;2022-12-20T19:23:29;66.80;;;28.13;;
66870;SDS011;53780;44.998;9.926;2022-12-20T19:26:34;70.67;;;29.47;;
66870;SDS011;53780;44.998;9.926;2022-12-20T19:29:39;62.58;;;27.70;;
66870;SDS011;53780;44.998;9.926;2022-12-20T19:32:45;62.88;;;28.30;;
66870;SDS011;53780;44.998;9.926;2022-12-20T19:35:49;64.05;;;27.67;;
66870;SDS011;53780;44.998;9.926;2022-12-20T19:38:55;65.30;;;28.50;;
66870;SDS011;53780;44.998;9.926;2022-12-20T19:42:00;73.73;;;30.67;;
66870;SDS011;53780;44.998;9.926;2022-12-20T19:45:05;93.30;;;36.83;;
66870;SDS011;53780;44.998;9.926;2022-12-20T19:48:09;63.08;;;27.98;;
66870;SDS011;53780;44.998;9.926;2022-12-20T19:51:14;61.28;;;27.75;;
66870;SDS011;53780;44.998;9.926;2022-12-20T19:54:18;66.22;;;29.95;;
66870;SDS011;53780;44.998;9.926;2022-12-20T19:57:23;63.17;;;28.57;;
66870;SDS011;53780;44.998;9.926;2022-12-20T20:00:27;64.72;;;28.90;;
66870;SDS011;53780;44.998;9.926;2022-12-20T20:03:31;64.57;;;28.38;;
66870;SDS011;53780;44.998;9.926;2022-12-20T20:06:36;64.68;;;27.15;;
66870;SDS011;53780;44.998;9.926;2022-12-20T20:09:40;59.65;;;27.70;;
66870;SDS011;53780;44.998;9.926;2022-12-20T20:12:44;59.77;;;26.63;;
66870;SDS011;53780;44.998;9.926;2022-12-20T20:15:48;64.97;;;27.35;;
66870;SDS011;53780;44.998;9.926;2022-12-20T20:18:53;58.65;;;27.42;;